sensor_id;sensor_type;location;lat;lon;timestamp;temperature;humidity
2639;DHT22;1329;51.384;7.122;2022-12-10T00:00:14;2.90;99.90
2639;DHT22;1329;51.384;7.122;2022-12-10T00:02:46;2.90;99.90
2639;DHT22;1329;51.384;7.122;2022-12-10T00:05:33;2.90;99.90
2639;DHT22;1329;51.384;7.122;2022-12-10T00:08:09;2.90;99.90
2639;DHT22;1329;51.384;7.122;2022-12-10T00:10:45;2.80;99.90
2639;DHT22;1329;51.384;7.122;2022-12-10T00:13:22;2.80;99.90
2639;DHT22;1329;51.384;7.122;2022-12-10T00:16:02;2.90;99.90
2639;DHT22;1329;51.384;7.122;2022-12-10T00:18:34;2.80;99.90
2639;DHT22;1329;51.384;7.122;2022-12-10T00:21:16;2.90;99.90
2639;DHT22;1329;51.384;7.122;2022-12-10T00:23:49;2.90;99.90
2639;DHT22;1329;51.384;7.122;2022-12-10T00:26:20;2.90;99.90
2639;DHT22;1329;51.384;7.122;2022-12-10T00:28:50;2.90;99.90
2639;DHT22;1329;51.384;7.122;2022-12-10T00:31:23;2.90;99.90
2639;DHT22;1329;51.384;7.122;2022-12-10T00:34:02;2.90;99.90
2639;DHT22;1329;51.384;7.122;2022-12-10T00:36:47;2.90;99.90
2639;DHT22;1329;51.384;7.122;2022-12-10T00:39:17;2.80;99.90
2639;DHT22;1329;51.384;7.122;2022-12-10T00:41:47;2.90;99.90
2639;DHT22;1329;51.384;7.122;2022-12-10T00:44:19;2.80;99.90
2639;DHT22;1329;51.384;7.122;2022-12-10T00:46:53;2.70;99.90
2639;DHT22;1329;51.384;7.122;2022-12-10T00:49:36;2.70;99.90
2639;DHT22;1329;51.384;7.122;2022-12-10T00:52:16;2.70;99.90
2639;DHT22;1329;51.384;7.122;2022-12-10T00:55:17;2.60;99.90
2639;DHT22;1329;51.384;7.122;2022-12-10T00:58:04;2.60;99.90
2639;DHT22;1329;51.384;7.122;2022-12-10T01:00:48;2.50;99.90
2639;DHT22;1329;51.384;7.122;2022-12-10T01:03:45;2.50;99.90
2639;DHT22;1329;51.384;7.122;2022-12-10T01:06:28;2.50;99.90
2639;DHT22;1329;51.384;7.122;2022-12-10T01:09:07;2.50;99.90
2639;DHT22;1329;51.384;7.122;2022-12-10T01:11:48;2.40;99.90
2639;DHT22;1329;51.384;7.122;2022-12-10T01:17:44;2.40;99.90
2639;DHT22;1329;51.384;7.122;2022-12-10T01:20:40;2.40;99.90
2639;DHT22;1329;51.384;7.122;2022-12-10T01:23:19;2.30;99.90
2639;DHT22;1329;51.384;7.122;2022-12-10T01:26:43;2.30;99.90
2639;DHT22;1329;51.384;7.122;2022-12-10T01:29:42;2.30;99.90
2639;DHT22;1329;51.384;7.122;2022-12-10T01:32:23;2.20;99.90
2639;DHT22;1329;51.384;7.122;2022-12-10T01:35:45;2.20;99.90
2639;DHT22;1329;51.384;7.122;2022-12-10T01:38:40;2.20;99.90
2639;DHT22;1329;51.384;7.122;2022-12-10T01:41:29;2.20;99.90
2639;DHT22;1329;51.384;7.122;2022-12-10T01:51:15;2.10;99.90
2639;DHT22;1329;51.384;7.122;2022-12-10T01:54:45;2.10;99.90
2639;DHT22;1329;51.384;7.122;2022-12-10T01:57:44;2.10;99.90
2639;DHT22;1329;51.384;7.122;2022-12-10T02:00:32;2.10;99.90
2639;DHT22;1329;51.384;7.122;2022-12-10T02:03:51;2.10;99.90
2639;DHT22;1329;51.384;7.122;2022-12-10T02:06:48;2.20;99.90
2639;DHT22;1329;51.384;7.122;2022-12-10T02:09:32;2.10;99.90
2639;DHT22;1329;51.384;7.122;2022-12-10T02:12:33;2.20;99.90
2639;DHT22;1329;51.384;7.122;2022-12-10T02:15:36;2.20;99.90
2639;DHT22;1329;51.384;7.122;2022-12-10T02:18:37;2.20;99.90
2639;DHT22;1329;51.384;7.122;2022-12-10T02:21:20;2.20;99.90
2639;DHT22;1329;51.384;7.122;2022-12-10T02:24:11;2.20;99.90
2639;DHT22;1329;51.384;7.122;2022-12-10T02:26:53;2.10;99.90
2639;DHT22;1329;51.384;7.122;2022-12-10T02:29:52;2.20;99.90
2639;DHT22;1329;51.384;7.122;2022-12-10T02:32:35;2.20;99.90
2639;DHT22;1329;51.384;7.122;2022-12-10T02:35:30;2.20;99.90
2639;DHT22;1329;51.384;7.122;2022-12-10T02:38:15;2.20;99.90
2639;DHT22;1329;51.384;7.122;2022-12-10T02:41:10;2.10;99.90
2639;DHT22;1329;51.384;7.122;2022-12-10T02:43:53;2.10;99.90
2639;DHT22;1329;51.384;7.122;2022-12-10T02:46:33;2.10;99.90
2639;DHT22;1329;51.384;7.122;2022-12-10T02:49:35;2.10;99.90
2639;DHT22;1329;51.384;7.122;2022-12-10T02:52:22;2.10;99.90
2639;DHT22;1329;51.384;7.122;2022-12-10T02:55:12;2.10;99.90
2639;DHT22;1329;51.384;7.122;2022-12-10T02:58:13;2.10;99.90
2639;DHT22;1329;51.384;7.122;2022-12-10T03:00:58;2.10;99.90
2639;DHT22;1329;51.384;7.122;2022-12-10T03:03:55;2.10;99.90
2639;DHT22;1329;51.384;7.122;2022-12-10T03:06:46;2.10;99.90
2639;DHT22;1329;51.384;7.122;2022-12-10T03:10:06;2.10;99.90
2639;DHT22;1329;51.384;7.122;2022-12-10T03:13:07;2.10;99.90
2639;DHT22;1329;51.384;7.122;2022-12-10T03:15:59;2.20;99.90
2639;DHT22;1329;51.384;7.122;2022-12-10T03:18:37;2.20;99.90
2639;DHT22;1329;51.384;7.122;2022-12-10T03:21:42;2.20;99.90
2639;DHT22;1329;51.384;7.122;2022-12-10T03:24:29;2.20;99.90
2639;DHT22;1329;51.384;7.122;2022-12-10T03:27:13;2.20;99.90
2639;DHT22;1329;51.384;7.122;2022-12-10T03:29:53;2.20;99.90
2639;DHT22;1329;51.384;7.122;2022-12-10T03:32:38;2.30;99.90
2639;DHT22;1329;51.384;7.122;2022-12-10T03:35:20;2.30;99.90
2639;DHT22;1329;51.384;7.122;2022-12-10T03:38:08;2.30;99.90
2639;DHT22;1329;51.384;7.122;2022-12-10T03:40:53;2.30;99.90
2639;DHT22;1329;51.384;7.122;2022-12-10T03:43:29;2.30;99.90
2639;DHT22;1329;51.384;7.122;2022-12-10T03:46:20;2.40;99.90
2639;DHT22;1329;51.384;7.122;2022-12-10T03:49:07;2.40;99.90
2639;DHT22;1329;51.384;7.122;2022-12-10T04:02:07;2.50;99.90
2639;DHT22;1329;51.384;7.122;2022-12-10T04:04:46;2.50;99.90
2639;DHT22;1329;51.384;7.122;2022-12-10T04:10:02;2.50;99.90
2639;DHT22;1329;51.384;7.122;2022-12-10T04:12:51;2.50;99.90
2639;DHT22;1329;51.384;7.122;2022-12-10T04:15:40;2.50;99.90
2639;DHT22;1329;51.384;7.122;2022-12-10T04:18:41;2.50;99.90
2639;DHT22;1329;51.384;7.122;2022-12-10T04:21:20;2.40;99.90
2639;DHT22;1329;51.384;7.122;2022-12-10T04:42:44;2.60;99.90
2639;DHT22;1329;51.384;7.122;2022-12-10T04:45:21;2.60;99.90
2639;DHT22;1329;51.384;7.122;2022-12-10T04:53:10;2.60;99.90
2639;DHT22;1329;51.384;7.122;2022-12-10T04:56:17;2.60;99.90
2639;DHT22;1329;51.384;7.122;2022-12-10T04:58:59;2.70;99.90
2639;DHT22;1329;51.384;7.122;2022-12-10T05:04:12;2.60;99.90
2639;DHT22;1329;51.384;7.122;2022-12-10T05:06:44;2.60;99.90
2639;DHT22;1329;51.384;7.122;2022-12-10T05:09:23;2.60;99.90
2639;DHT22;1329;51.384;7.122;2022-12-10T05:11:56;2.70;99.90
2639;DHT22;1329;51.384;7.122;2022-12-10T05:14:32;2.70;99.90
2639;DHT22;1329;51.384;7.122;2022-12-10T05:17:00;2.70;99.90
2639;DHT22;1329;51.384;7.122;2022-12-10T05:19:40;2.70;99.90
2639;DHT22;1329;51.384;7.122;2022-12-10T05:22:12;2.70;99.90
2639;DHT22;1329;51.384;7.122;2022-12-10T05:25:07;2.70;99.90
2639;DHT22;1329;51.384;7.122;2022-12-10T05:27:39;2.70;99.90
2639;DHT22;1329;51.384;7.122;2022-12-10T05:30:21;2.70;99.90
2639;DHT22;1329;51.384;7.122;2022-12-10T05:32:56;2.70;99.90
2639;DHT22;1329;51.384;7.122;2022-12-10T05:35:36;2.60;99.90
2639;DHT22;1329;51.384;7.122;2022-12-10T05:38:09;2.60;99.90
2639;DHT22;1329;51.384;7.122;2022-12-10T05:41:08;2.50;99.90
2639;DHT22;1329;51.384;7.122;2022-12-10T05:43:54;2.50;99.90
2639;DHT22;1329;51.384;7.122;2022-12-10T09:28:41;2.30;99.90
2639;DHT22;1329;51.384;7.122;2022-12-10T09:31:49;2.30;99.90
2639;DHT22;1329;51.384;7.122;2022-12-10T09:37:25;2.40;99.90
2639;DHT22;1329;51.384;7.122;2022-12-10T09:40:37;2.40;99.90
2639;DHT22;1329;51.384;7.122;2022-12-10T09:43:36;2.40;99.90
2639;DHT22;1329;51.384;7.122;2022-12-10T09:46:41;2.40;99.90
2639;DHT22;1329;51.384;7.122;2022-12-10T09:49:41;2.50;99.90
2639;DHT22;1329;51.384;7.122;2022-12-10T09:55:19;2.50;99.90
2639;DHT22;1329;51.384;7.122;2022-12-10T09:58:22;2.50;99.90
2639;DHT22;1329;51.384;7.122;2022-12-10T10:01:15;2.50;99.90
2639;DHT22;1329;51.384;7.122;2022-12-10T10:04:16;2.50;99.90
2639;DHT22;1329;51.384;7.122;2022-12-10T10:06:50;2.60;99.90
2639;DHT22;1329;51.384;7.122;2022-12-10T10:10:18;2.60;99.90
2639;DHT22;1329;51.384;7.122;2022-12-10T10:13:20;2.60;99.90
2639;DHT22;1329;51.384;7.122;2022-12-10T10:16:19;2.60;99.90
2639;DHT22;1329;51.384;7.122;2022-12-10T10:18:57;2.60;99.90
2639;DHT22;1329;51.384;7.122;2022-12-10T10:21:27;2.70;99.90
2639;DHT22;1329;51.384;7.122;2022-12-10T10:23:57;2.70;99.90
2639;DHT22;1329;51.384;7.122;2022-12-10T10:26:26;2.70;99.90
2639;DHT22;1329;51.384;7.122;2022-12-10T10:28:57;2.70;99.90
2639;DHT22;1329;51.384;7.122;2022-12-10T10:31:30;2.80;99.90
2639;DHT22;1329;51.384;7.122;2022-12-10T10:34:00;2.70;99.90
2639;DHT22;1329;51.384;7.122;2022-12-10T10:36:30;2.70;99.90
2639;DHT22;1329;51.384;7.122;2022-12-10T10:39:08;2.70;99.90
2639;DHT22;1329;51.384;7.122;2022-12-10T10:41:38;2.80;99.90
2639;DHT22;1329;51.384;7.122;2022-12-10T10:44:13;2.80;99.90
2639;DHT22;1329;51.384;7.122;2022-12-10T10:46:45;2.80;99.90
2639;DHT22;1329;51.384;7.122;2022-12-10T10:49:21;2.80;99.90
2639;DHT22;1329;51.384;7.122;2022-12-10T10:51:52;2.80;99.90
2639;DHT22;1329;51.384;7.122;2022-12-10T10:54:32;2.80;99.90
2639;DHT22;1329;51.384;7.122;2022-12-10T10:57:03;2.80;99.90
2639;DHT22;1329;51.384;7.122;2022-12-10T10:59:34;2.90;99.90
2639;DHT22;1329;51.384;7.122;2022-12-10T11:02:13;2.90;99.90
2639;DHT22;1329;51.384;7.122;2022-12-10T11:04:46;2.90;99.90
2639;DHT22;1329;51.384;7.122;2022-12-10T11:07:20;2.90;99.90
2639;DHT22;1329;51.384;7.122;2022-12-10T11:09:52;2.90;99.90
2639;DHT22;1329;51.384;7.122;2022-12-10T11:12:29;2.90;99.90
2639;DHT22;1329;51.384;7.122;2022-12-10T11:15:00;2.90;99.90
2639;DHT22;1329;51.384;7.122;2022-12-10T11:17:29;3.00;99.90
2639;DHT22;1329;51.384;7.122;2022-12-10T11:19:59;3.00;99.90
2639;DHT22;1329;51.384;7.122;2022-12-10T11:22:30;3.00;99.90
2639;DHT22;1329;51.384;7.122;2022-12-10T11:25:01;3.00;99.90
2639;DHT22;1329;51.384;7.122;2022-12-10T11:27:37;3.00;99.90
2639;DHT22;1329;51.384;7.122;2022-12-10T11:30:13;3.00;99.90
2639;DHT22;1329;51.384;7.122;2022-12-10T11:33:19;3.00;99.90
2639;DHT22;1329;51.384;7.122;2022-12-10T11:35:56;2.90;99.90
2639;DHT22;1329;51.384;7.122;2022-12-10T11:38:30;3.00;99.90
2639;DHT22;1329;51.384;7.122;2022-12-10T11:41:15;3.00;99.90
2639;DHT22;1329;51.384;7.122;2022-12-10T11:43:53;3.00;99.90
2639;DHT22;1329;51.384;7.122;2022-12-10T11:46:44;3.00;99.90
2639;DHT22;1329;51.384;7.122;2022-12-10T11:49:34;3.00;99.90
2639;DHT22;1329;51.384;7.122;2022-12-10T11:52:11;3.10;99.90
2639;DHT22;1329;51.384;7.122;2022-12-10T11:55:01;3.10;99.90
2639;DHT22;1329;51.384;7.122;2022-12-10T11:57:38;3.10;99.90
2639;DHT22;1329;51.384;7.122;2022-12-10T12:00:20;3.10;99.90
2639;DHT22;1329;51.384;7.122;2022-12-10T12:03:08;3.10;99.90
2639;DHT22;1329;51.384;7.122;2022-12-10T12:06:05;3.10;99.90
2639;DHT22;1329;51.384;7.122;2022-12-10T12:08:52;3.10;99.90
2639;DHT22;1329;51.384;7.122;2022-12-10T12:11:33;3.10;99.90
2639;DHT22;1329;51.384;7.122;2022-12-10T12:14:19;3.10;99.90
2639;DHT22;1329;51.384;7.122;2022-12-10T12:16:54;3.10;99.90
2639;DHT22;1329;51.384;7.122;2022-12-10T12:19:32;3.10;99.90
2639;DHT22;1329;51.384;7.122;2022-12-10T12:22:14;3.20;99.90
2639;DHT22;1329;51.384;7.122;2022-12-10T12:24:51;3.20;99.90
2639;DHT22;1329;51.384;7.122;2022-12-10T12:27:25;3.20;99.90
2639;DHT22;1329;51.384;7.122;2022-12-10T12:30:02;3.10;99.90
2639;DHT22;1329;51.384;7.122;2022-12-10T12:32:40;3.20;99.90
2639;DHT22;1329;51.384;7.122;2022-12-10T12:35:17;3.20;99.90
2639;DHT22;1329;51.384;7.122;2022-12-10T12:37:54;3.20;99.90
2639;DHT22;1329;51.384;7.122;2022-12-10T12:40:28;3.30;99.90
2639;DHT22;1329;51.384;7.122;2022-12-10T12:42:59;3.30;99.90
2639;DHT22;1329;51.384;7.122;2022-12-10T12:45:36;3.30;99.90
2639;DHT22;1329;51.384;7.122;2022-12-10T12:48:14;3.30;99.90
2639;DHT22;1329;51.384;7.122;2022-12-10T12:50:47;3.30;99.90
2639;DHT22;1329;51.384;7.122;2022-12-10T12:53:23;3.30;99.90
2639;DHT22;1329;51.384;7.122;2022-12-10T12:55:58;3.30;99.90
2639;DHT22;1329;51.384;7.122;2022-12-10T12:58:36;3.20;99.90
2639;DHT22;1329;51.384;7.122;2022-12-10T13:01:16;3.30;99.90
2639;DHT22;1329;51.384;7.122;2022-12-10T13:03:50;3.30;99.90
2639;DHT22;1329;51.384;7.122;2022-12-10T13:06:21;3.20;99.90
2639;DHT22;1329;51.384;7.122;2022-12-10T13:08:53;3.30;99.90
2639;DHT22;1329;51.384;7.122;2022-12-10T13:11:33;3.30;99.90
2639;DHT22;1329;51.384;7.122;2022-12-10T13:14:29;3.30;99.90
2639;DHT22;1329;51.384;7.122;2022-12-10T13:17:26;3.30;99.90
2639;DHT22;1329;51.384;7.122;2022-12-10T13:20:32;3.30;99.90
2639;DHT22;1329;51.384;7.122;2022-12-10T13:23:01;3.30;99.90
2639;DHT22;1329;51.384;7.122;2022-12-10T13:25:56;3.30;99.90
2639;DHT22;1329;51.384;7.122;2022-12-10T13:28:40;3.20;99.90
2639;DHT22;1329;51.384;7.122;2022-12-10T13:31:22;3.20;99.90
2639;DHT22;1329;51.384;7.122;2022-12-10T13:34:29;3.20;99.90
2639;DHT22;1329;51.384;7.122;2022-12-10T13:37:26;3.20;99.90
2639;DHT22;1329;51.384;7.122;2022-12-10T13:40:12;3.20;99.90
2639;DHT22;1329;51.384;7.122;2022-12-10T13:42:45;3.20;99.90
2639;DHT22;1329;51.384;7.122;2022-12-10T13:45:34;3.20;99.90
2639;DHT22;1329;51.384;7.122;2022-12-10T13:48:32;3.20;99.90
2639;DHT22;1329;51.384;7.122;2022-12-10T13:54:29;3.20;99.90
2639;DHT22;1329;51.384;7.122;2022-12-10T13:57:30;3.20;99.90
2639;DHT22;1329;51.384;7.122;2022-12-10T14:00:13;3.20;99.90
2639;DHT22;1329;51.384;7.122;2022-12-10T14:03:00;3.20;99.90
2639;DHT22;1329;51.384;7.122;2022-12-10T14:05:55;3.20;99.90
2639;DHT22;1329;51.384;7.122;2022-12-10T14:08:32;3.20;99.90
2639;DHT22;1329;51.384;7.122;2022-12-10T14:11:04;3.20;99.90
2639;DHT22;1329;51.384;7.122;2022-12-10T14:13:36;3.20;99.90
2639;DHT22;1329;51.384;7.122;2022-12-10T14:16:12;3.20;99.90
2639;DHT22;1329;51.384;7.122;2022-12-10T14:18:42;3.20;99.90
2639;DHT22;1329;51.384;7.122;2022-12-10T14:21:12;3.20;99.90
2639;DHT22;1329;51.384;7.122;2022-12-10T14:23:44;3.20;99.90
2639;DHT22;1329;51.384;7.122;2022-12-10T14:26:16;3.20;99.90
2639;DHT22;1329;51.384;7.122;2022-12-10T14:28:46;3.20;99.90
2639;DHT22;1329;51.384;7.122;2022-12-10T14:31:20;3.20;99.90
2639;DHT22;1329;51.384;7.122;2022-12-10T14:33:50;3.20;99.90
2639;DHT22;1329;51.384;7.122;2022-12-10T14:36:27;3.20;99.90
2639;DHT22;1329;51.384;7.122;2022-12-10T14:38:57;3.30;99.90
2639;DHT22;1329;51.384;7.122;2022-12-10T14:41:28;3.30;99.90
2639;DHT22;1329;51.384;7.122;2022-12-10T14:44:02;3.30;99.90
2639;DHT22;1329;51.384;7.122;2022-12-10T14:46:32;3.30;99.90
2639;DHT22;1329;51.384;7.122;2022-12-10T14:49:00;3.30;99.90
2639;DHT22;1329;51.384;7.122;2022-12-10T14:51:32;3.30;99.90
2639;DHT22;1329;51.384;7.122;2022-12-10T14:54:00;3.30;99.90
2639;DHT22;1329;51.384;7.122;2022-12-10T14:56:31;3.30;99.90
2639;DHT22;1329;51.384;7.122;2022-12-10T14:59:04;3.30;99.90
2639;DHT22;1329;51.384;7.122;2022-12-10T15:01:37;3.30;99.90
2639;DHT22;1329;51.384;7.122;2022-12-10T15:04:12;3.20;99.90
2639;DHT22;1329;51.384;7.122;2022-12-10T15:06:41;3.20;99.90
2639;DHT22;1329;51.384;7.122;2022-12-10T15:09:15;3.30;99.90
2639;DHT22;1329;51.384;7.122;2022-12-10T15:11:43;3.30;99.90
2639;DHT22;1329;51.384;7.122;2022-12-10T15:14:16;3.30;99.90
2639;DHT22;1329;51.384;7.122;2022-12-10T15:16:47;3.30;99.90
2639;DHT22;1329;51.384;7.122;2022-12-10T15:19:20;3.20;99.90
2639;DHT22;1329;51.384;7.122;2022-12-10T15:21:50;3.20;99.90
2639;DHT22;1329;51.384;7.122;2022-12-10T15:24:20;3.20;99.90
2639;DHT22;1329;51.384;7.122;2022-12-10T15:26:50;3.30;99.90
2639;DHT22;1329;51.384;7.122;2022-12-10T15:29:34;3.20;99.90
2639;DHT22;1329;51.384;7.122;2022-12-10T15:32:09;3.30;99.90
2639;DHT22;1329;51.384;7.122;2022-12-10T15:34:43;3.30;99.90
2639;DHT22;1329;51.384;7.122;2022-12-10T15:37:17;3.30;99.90
2639;DHT22;1329;51.384;7.122;2022-12-10T15:39:49;3.30;99.90
2639;DHT22;1329;51.384;7.122;2022-12-10T15:42:39;3.30;99.90
2639;DHT22;1329;51.384;7.122;2022-12-10T15:45:25;3.30;99.90
2639;DHT22;1329;51.384;7.122;2022-12-10T15:47:57;3.30;99.90
2639;DHT22;1329;51.384;7.122;2022-12-10T15:50:25;3.20;99.90
2639;DHT22;1329;51.384;7.122;2022-12-10T15:52:52;3.20;99.90
2639;DHT22;1329;51.384;7.122;2022-12-10T15:55:19;3.20;99.90
2639;DHT22;1329;51.384;7.122;2022-12-10T15:57:47;3.20;99.90
2639;DHT22;1329;51.384;7.122;2022-12-10T16:00:18;3.20;99.90
2639;DHT22;1329;51.384;7.122;2022-12-10T16:02:50;3.20;99.90
2639;DHT22;1329;51.384;7.122;2022-12-10T16:05:25;3.20;99.90
2639;DHT22;1329;51.384;7.122;2022-12-10T16:07:55;3.20;99.90
2639;DHT22;1329;51.384;7.122;2022-12-10T16:10:24;3.20;99.90
2639;DHT22;1329;51.384;7.122;2022-12-10T16:12:58;3.20;99.90
2639;DHT22;1329;51.384;7.122;2022-12-10T16:15:29;3.20;99.90
2639;DHT22;1329;51.384;7.122;2022-12-10T16:18:01;3.20;99.90
2639;DHT22;1329;51.384;7.122;2022-12-10T16:20:31;3.20;99.90
2639;DHT22;1329;51.384;7.122;2022-12-10T16:23:00;3.20;99.90
2639;DHT22;1329;51.384;7.122;2022-12-10T16:25:30;3.20;99.90
2639;DHT22;1329;51.384;7.122;2022-12-10T16:27:58;3.20;99.90
2639;DHT22;1329;51.384;7.122;2022-12-10T16:30:31;3.20;99.90
2639;DHT22;1329;51.384;7.122;2022-12-10T16:33:00;3.20;99.90
2639;DHT22;1329;51.384;7.122;2022-12-10T16:35:28;3.20;99.90
2639;DHT22;1329;51.384;7.122;2022-12-10T16:37:56;3.20;99.90
2639;DHT22;1329;51.384;7.122;2022-12-10T16:40:26;3.20;99.90
2639;DHT22;1329;51.384;7.122;2022-12-10T16:42:56;3.20;99.90
2639;DHT22;1329;51.384;7.122;2022-12-10T16:45:26;3.20;99.90
2639;DHT22;1329;51.384;7.122;2022-12-10T16:47:54;3.30;99.90
2639;DHT22;1329;51.384;7.122;2022-12-10T16:50:22;3.20;99.90
2639;DHT22;1329;51.384;7.122;2022-12-10T16:52:52;3.20;99.90
2639;DHT22;1329;51.384;7.122;2022-12-10T16:55:21;3.20;99.90
2639;DHT22;1329;51.384;7.122;2022-12-10T16:57:51;3.30;99.90
2639;DHT22;1329;51.384;7.122;2022-12-10T17:00:20;3.30;99.90
2639;DHT22;1329;51.384;7.122;2022-12-10T17:02:48;3.30;99.90
2639;DHT22;1329;51.384;7.122;2022-12-10T17:05:21;3.30;99.90
2639;DHT22;1329;51.384;7.122;2022-12-10T17:07:54;3.30;99.90
2639;DHT22;1329;51.384;7.122;2022-12-10T17:10:21;3.30;99.90
2639;DHT22;1329;51.384;7.122;2022-12-10T17:13:10;3.30;99.90
2639;DHT22;1329;51.384;7.122;2022-12-10T17:15:38;3.30;99.90
2639;DHT22;1329;51.384;7.122;2022-12-10T17:18:09;3.30;99.90
2639;DHT22;1329;51.384;7.122;2022-12-10T17:20:37;3.30;99.90
2639;DHT22;1329;51.384;7.122;2022-12-10T17:23:06;3.30;99.90
2639;DHT22;1329;51.384;7.122;2022-12-10T17:25:33;3.30;99.90
2639;DHT22;1329;51.384;7.122;2022-12-10T17:28:00;3.30;99.90
2639;DHT22;1329;51.384;7.122;2022-12-10T17:30:27;3.30;99.90
2639;DHT22;1329;51.384;7.122;2022-12-10T17:32:54;3.40;99.90
2639;DHT22;1329;51.384;7.122;2022-12-10T17:35:22;3.30;99.90
2639;DHT22;1329;51.384;7.122;2022-12-10T17:37:49;3.30;99.90
2639;DHT22;1329;51.384;7.122;2022-12-10T17:40:21;3.30;99.90
2639;DHT22;1329;51.384;7.122;2022-12-10T17:42:49;3.30;99.90
2639;DHT22;1329;51.384;7.122;2022-12-10T17:45:18;3.30;99.90
2639;DHT22;1329;51.384;7.122;2022-12-10T17:47:45;3.30;99.90
2639;DHT22;1329;51.384;7.122;2022-12-10T17:50:21;3.30;99.90
2639;DHT22;1329;51.384;7.122;2022-12-10T17:52:51;3.30;99.90
2639;DHT22;1329;51.384;7.122;2022-12-10T17:55:19;3.30;99.90
2639;DHT22;1329;51.384;7.122;2022-12-10T17:57:46;3.40;99.90
2639;DHT22;1329;51.384;7.122;2022-12-10T18:00:21;3.40;99.90
2639;DHT22;1329;51.384;7.122;2022-12-10T18:02:48;3.40;99.90
2639;DHT22;1329;51.384;7.122;2022-12-10T18:05:16;3.30;99.90
2639;DHT22;1329;51.384;7.122;2022-12-10T18:07:43;3.40;99.90
2639;DHT22;1329;51.384;7.122;2022-12-10T18:10:16;3.40;99.90
2639;DHT22;1329;51.384;7.122;2022-12-10T18:12:47;3.40;99.90
2639;DHT22;1329;51.384;7.122;2022-12-10T18:15:16;3.40;99.90
2639;DHT22;1329;51.384;7.122;2022-12-10T18:17:43;3.40;99.90
2639;DHT22;1329;51.384;7.122;2022-12-10T18:20:17;3.40;99.90
2639;DHT22;1329;51.384;7.122;2022-12-10T18:22:50;3.40;99.90
2639;DHT22;1329;51.384;7.122;2022-12-10T18:25:19;3.40;99.90
2639;DHT22;1329;51.384;7.122;2022-12-10T18:27:48;3.40;99.90
2639;DHT22;1329;51.384;7.122;2022-12-10T18:30:17;3.40;99.90
2639;DHT22;1329;51.384;7.122;2022-12-10T18:32:46;3.40;99.90
2639;DHT22;1329;51.384;7.122;2022-12-10T18:35:13;3.40;99.90
2639;DHT22;1329;51.384;7.122;2022-12-10T18:37:41;3.40;99.90
2639;DHT22;1329;51.384;7.122;2022-12-10T18:40:14;3.40;99.90
2639;DHT22;1329;51.384;7.122;2022-12-10T18:42:43;3.40;99.90
2639;DHT22;1329;51.384;7.122;2022-12-10T18:45:12;3.40;99.90
2639;DHT22;1329;51.384;7.122;2022-12-10T18:47:39;3.40;99.90
2639;DHT22;1329;51.384;7.122;2022-12-10T18:50:15;3.40;99.90
2639;DHT22;1329;51.384;7.122;2022-12-10T18:52:45;3.40;99.90
2639;DHT22;1329;51.384;7.122;2022-12-10T18:55:12;3.40;99.90
2639;DHT22;1329;51.384;7.122;2022-12-10T18:57:39;3.40;99.90
2639;DHT22;1329;51.384;7.122;2022-12-10T19:00:13;3.40;99.90
2639;DHT22;1329;51.384;7.122;2022-12-10T19:02:42;3.40;99.90
2639;DHT22;1329;51.384;7.122;2022-12-10T19:05:09;3.40;99.90
2639;DHT22;1329;51.384;7.122;2022-12-10T19:07:37;3.40;99.90
2639;DHT22;1329;51.384;7.122;2022-12-10T19:10:12;3.40;99.90
2639;DHT22;1329;51.384;7.122;2022-12-10T19:12:40;3.40;99.90
2639;DHT22;1329;51.384;7.122;2022-12-10T19:15:08;3.40;99.90
2639;DHT22;1329;51.384;7.122;2022-12-10T19:17:37;3.40;99.90
2639;DHT22;1329;51.384;7.122;2022-12-10T19:20:11;3.30;99.90
2639;DHT22;1329;51.384;7.122;2022-12-10T19:22:39;3.40;99.90
2639;DHT22;1329;51.384;7.122;2022-12-10T19:25:07;3.40;99.90
2639;DHT22;1329;51.384;7.122;2022-12-10T19:27:34;3.40;99.90
2639;DHT22;1329;51.384;7.122;2022-12-10T19:30:04;3.40;99.90
2639;DHT22;1329;51.384;7.122;2022-12-10T19:32:32;3.40;99.90
2639;DHT22;1329;51.384;7.122;2022-12-10T19:35:00;3.40;99.90
2639;DHT22;1329;51.384;7.122;2022-12-10T19:37:27;3.50;99.90
2639;DHT22;1329;51.384;7.122;2022-12-10T19:39:56;3.50;99.90
2639;DHT22;1329;51.384;7.122;2022-12-10T19:42:22;3.50;99.90
2639;DHT22;1329;51.384;7.122;2022-12-10T19:44:51;3.40;99.90
2639;DHT22;1329;51.384;7.122;2022-12-10T19:47:18;3.50;99.90
2639;DHT22;1329;51.384;7.122;2022-12-10T19:49:45;3.50;99.90
2639;DHT22;1329;51.384;7.122;2022-12-10T19:52:14;3.50;99.90
2639;DHT22;1329;51.384;7.122;2022-12-10T19:54:40;3.50;99.90
2639;DHT22;1329;51.384;7.122;2022-12-10T19:57:09;3.50;99.90
2639;DHT22;1329;51.384;7.122;2022-12-10T19:59:37;3.60;99.90
2639;DHT22;1329;51.384;7.122;2022-12-10T20:02:04;3.50;99.90
2639;DHT22;1329;51.384;7.122;2022-12-10T20:04:31;3.50;99.90
2639;DHT22;1329;51.384;7.122;2022-12-10T20:06:58;3.60;99.90
2639;DHT22;1329;51.384;7.122;2022-12-10T20:09:29;3.50;99.90
2639;DHT22;1329;51.384;7.122;2022-12-10T20:11:56;3.50;99.90
2639;DHT22;1329;51.384;7.122;2022-12-10T20:14:23;3.60;99.90
2639;DHT22;1329;51.384;7.122;2022-12-10T20:16:51;3.50;99.90
2639;DHT22;1329;51.384;7.122;2022-12-10T20:19:19;3.50;99.90
2639;DHT22;1329;51.384;7.122;2022-12-10T20:21:51;3.50;99.90
2639;DHT22;1329;51.384;7.122;2022-12-10T20:24:18;3.50;99.90
2639;DHT22;1329;51.384;7.122;2022-12-10T20:26:47;3.50;99.90
2639;DHT22;1329;51.384;7.122;2022-12-10T20:29:17;3.50;99.90
2639;DHT22;1329;51.384;7.122;2022-12-10T20:31:46;3.50;99.90
2639;DHT22;1329;51.384;7.122;2022-12-10T20:34:13;3.50;99.90
2639;DHT22;1329;51.384;7.122;2022-12-10T20:36:41;3.50;99.90
2639;DHT22;1329;51.384;7.122;2022-12-10T20:39:14;3.50;99.90
2639;DHT22;1329;51.384;7.122;2022-12-10T20:41:44;3.50;99.90
2639;DHT22;1329;51.384;7.122;2022-12-10T20:44:12;3.50;99.90
2639;DHT22;1329;51.384;7.122;2022-12-10T20:46:40;3.50;99.90
2639;DHT22;1329;51.384;7.122;2022-12-10T20:49:08;3.50;99.90
2639;DHT22;1329;51.384;7.122;2022-12-10T20:51:36;3.50;99.90
2639;DHT22;1329;51.384;7.122;2022-12-10T20:54:04;3.50;99.90
2639;DHT22;1329;51.384;7.122;2022-12-10T20:56:31;3.40;99.90
2639;DHT22;1329;51.384;7.122;2022-12-10T20:58:58;3.40;99.90
2639;DHT22;1329;51.384;7.122;2022-12-10T21:01:27;3.40;99.90
2639;DHT22;1329;51.384;7.122;2022-12-10T21:03:55;3.40;99.90
2639;DHT22;1329;51.384;7.122;2022-12-10T21:06:25;3.40;99.90
2639;DHT22;1329;51.384;7.122;2022-12-10T21:08:54;3.40;99.90
2639;DHT22;1329;51.384;7.122;2022-12-10T21:11:22;3.40;99.90
2639;DHT22;1329;51.384;7.122;2022-12-10T21:13:49;3.40;99.90
2639;DHT22;1329;51.384;7.122;2022-12-10T21:16:20;3.50;99.90
2639;DHT22;1329;51.384;7.122;2022-12-10T21:18:49;3.40;99.90
2639;DHT22;1329;51.384;7.122;2022-12-10T21:21:18;3.50;99.90
2639;DHT22;1329;51.384;7.122;2022-12-10T21:23:46;3.50;99.90
2639;DHT22;1329;51.384;7.122;2022-12-10T21:26:14;3.40;99.90
2639;DHT22;1329;51.384;7.122;2022-12-10T21:28:41;3.50;99.90
2639;DHT22;1329;51.384;7.122;2022-12-10T21:31:14;3.40;99.90
2639;DHT22;1329;51.384;7.122;2022-12-10T21:33:43;3.40;99.90
2639;DHT22;1329;51.384;7.122;2022-12-10T21:36:13;3.40;99.90
2639;DHT22;1329;51.384;7.122;2022-12-10T21:38:42;3.40;99.90
2639;DHT22;1329;51.384;7.122;2022-12-10T21:41:15;3.40;99.90
2639;DHT22;1329;51.384;7.122;2022-12-10T21:44:02;3.40;99.90
2639;DHT22;1329;51.384;7.122;2022-12-10T21:46:29;3.50;99.90
2639;DHT22;1329;51.384;7.122;2022-12-10T21:48:57;3.40;99.90
2639;DHT22;1329;51.384;7.122;2022-12-10T21:51:26;3.40;99.90
2639;DHT22;1329;51.384;7.122;2022-12-10T21:53:53;3.40;99.90
2639;DHT22;1329;51.384;7.122;2022-12-10T21:56:21;3.30;99.90
2639;DHT22;1329;51.384;7.122;2022-12-10T21:58:49;3.40;99.90
2639;DHT22;1329;51.384;7.122;2022-12-10T22:01:16;3.30;99.90
2639;DHT22;1329;51.384;7.122;2022-12-10T22:03:44;3.30;99.90